Time;durP1;ratioP1;P1;durP2;ratioP2;P2;SDS_P1;SDS_P2;PMS_P1;PMS_P2;Temp;Humidity;BMP_temperature;BMP_pressure;BME280_temperature;BME280_humidity;BME280_pressure;Samples;Min_cycle;Max_cycle;Signal;HPM_P1;HPM_P2
2023/01/02 00:00:49;;;;;;;7.95;2.33;;;;;;;;;;5087220;28;20036;-74
2023/01/02 00:03:15;;;;;;;4.22;1.50;;;;;;;;;;5067951;28;20051;-74
2023/01/02 00:05:41;;;;;;;5.50;1.67;;;;;;;;;;5053888;28;20055;-74
2023/01/02 00:08:07;;;;;;;5.30;1.67;;;;;;;;;;5101722;28;20043;-74
2023/01/02 00:10:33;;;;;;;4.22;1.73;;;;;;;;;;5070032;28;20045;-75
2023/01/02 00:12:59;;;;;;;5.03;2.05;;;;;;;;;;5090242;28;20036;-74
2023/01/02 00:15:26;;;;;;;3.78;1.42;;;;;;;;;;5079334;28;20049;-75
2023/01/02 00:17:52;;;;;;;3.20;1.20;;;;;;;;;;5070402;28;20048;-75
2023/01/02 00:20:18;;;;;;;5.55;1.88;;;;;;;;;;5073386;28;20050;-74
2023/01/02 00:22:44;;;;;;;4.03;1.75;;;;;;;;;;5046513;28;20032;-74
2023/01/02 00:25:10;;;;;;;2.97;2.05;;;;;;;;;;5057477;28;20244;-75
2023/01/02 00:27:37;;;;;;;2.88;1.85;;;;;;;;;;5057712;28;20060;-75
2023/01/02 00:30:04;;;;;;;2.25;1.55;;;;;;;;;;5063055;28;20055;-75
2023/01/02 00:32:30;;;;;;;4.07;2.00;;;;;;;;;;5056904;28;20040;-74
2023/01/02 00:34:56;;;;;;;6.35;2.22;;;;;;;;;;5045014;28;20044;-74
2023/01/02 00:37:22;;;;;;;2.88;1.65;;;;;;;;;;5078042;28;20075;-74
2023/01/02 00:39:49;;;;;;;6.35;2.38;;;;;;;;;;5066318;28;20120;-74
2023/01/02 00:42:15;;;;;;;3.20;1.83;;;;;;;;;;5100174;28;20461;-75
2023/01/02 00:44:41;;;;;;;6.90;2.35;;;;;;;;;;5071052;28;20075;-75
2023/01/02 00:47:07;;;;;;;2.75;1.77;;;;;;;;;;5076579;28;20044;-75
2023/01/02 00:49:33;;;;;;;7.35;2.42;;;;;;;;;;5080345;28;20040;-74
2023/01/02 00:51:59;;;;;;;5.35;2.33;;;;;;;;;;5086538;28;20482;-75
2023/01/02 00:54:25;;;;;;;6.13;2.42;;;;;;;;;;5070962;28;20040;-75
2023/01/02 00:56:51;;;;;;;3.80;2.35;;;;;;;;;;5091712;28;20524;-74
2023/01/02 00:59:17;;;;;;;4.90;2.55;;;;;;;;;;5081194;28;20132;-75
2023/01/02 01:01:44;;;;;;;5.97;3.20;;;;;;;;;;5081742;28;20035;-75
2023/01/02 01:04:10;;;;;;;4.82;3.40;;;;;;;;;;5075712;28;20040;-74
2023/01/02 01:06:36;;;;;;;5.50;3.40;;;;;;;;;;5071914;28;20044;-74
2023/01/02 01:09:02;;;;;;;6.28;4.20;;;;;;;;;;5090347;28;20101;-75
2023/01/02 01:11:28;;;;;;;6.38;4.13;;;;;;;;;;5072652;28;20481;-74
2023/01/02 01:13:54;;;;;;;5.13;3.88;;;;;;;;;;5076281;28;20496;-75
2023/01/02 01:16:21;;;;;;;8.82;4.85;;;;;;;;;;5092095;28;20043;-74
2023/01/02 01:18:47;;;;;;;8.45;4.28;;;;;;;;;;5090275;28;20378;-74
2023/01/02 01:21:14;;;;;;;6.15;4.70;;;;;;;;;;5077927;28;20043;-74
2023/01/02 01:23:41;;;;;;;6.97;4.93;;;;;;;;;;5076765;28;20043;-74
2023/01/02 01:26:08;;;;;;;5.28;4.45;;;;;;;;;;5086609;28;20056;-73
2023/01/02 01:28:34;;;;;;;7.53;4.78;;;;;;;;;;5089477;28;20543;-73
2023/01/02 01:31:19;;;;;;;7.20;4.60;;;;;;;;;;5095346;28;20036;-74
2023/01/02 01:33:45;;;;;;;7.18;5.30;;;;;;;;;;5070372;28;20036;-74
2023/01/02 01:36:13;;;;;;;9.23;4.90;;;;;;;;;;5060534;28;20100;-74
2023/01/02 01:38:39;;;;;;;5.03;4.40;;;;;;;;;;5085344;28;20051;-74
2023/01/02 01:41:06;;;;;;;7.10;4.65;;;;;;;;;;5093561;28;20051;-74
2023/01/02 01:43:36;;;;;;;7.20;4.97;;;;;;;;;;5073212;28;20408;-74
2023/01/02 01:46:02;;;;;;;7.97;5.20;;;;;;;;;;5091371;28;20040;-73
2023/01/02 01:48:29;;;;;;;5.78;4.65;;;;;;;;;;5089567;28;20185;-74
2023/01/02 01:50:55;;;;;;;7.22;5.68;;;;;;;;;;5090515;28;20120;-74
2023/01/02 01:53:22;;;;;;;10.13;4.22;;;;;;;;;;5072696;28;20182;-74
2023/01/02 01:55:53;;;;;;;5.72;4.50;;;;;;;;;;5067875;28;20060;-74
2023/01/02 01:58:24;;;;;;;7.22;4.07;;;;;;;;;;5078490;28;20557;-75
2023/01/02 02:00:50;;;;;;;6.28;4.05;;;;;;;;;;5074332;28;20035;-75
2023/01/02 02:03:20;;;;;;;7.55;5.10;;;;;;;;;;5103662;28;20613;-75
2023/01/02 02:05:47;;;;;;;5.85;4.30;;;;;;;;;;5074391;28;20444;-75
2023/01/02 02:08:16;;;;;;;5.63;4.90;;;;;;;;;;5076248;28;20043;-73
2023/01/02 02:10:43;;;;;;;5.97;4.70;;;;;;;;;;5073869;28;20738;-74
2023/01/02 02:13:09;;;;;;;8.68;6.40;;;;;;;;;;5073036;28;20036;-75
2023/01/02 02:15:53;;;;;;;8.48;6.65;;;;;;;;;;5090229;28;20146;-74
2023/01/02 02:18:19;;;;;;;8.73;6.53;;;;;;;;;;5101901;27;20063;-74
2023/01/02 02:21:05;;;;;;;8.63;6.50;;;9.80;99.90;;;;;;5059602;28;20048;-74
2023/01/02 02:23:41;;;;;;;8.43;6.88;;;;;;;;;;5086757;28;20559;-75
2023/01/02 02:26:07;;;;;;;7.20;6.18;;;;;;;;;;5059637;28;20052;-74
2023/01/02 02:28:39;;;;;;;9.93;7.18;;;;;;;;;;5089743;28;20119;-75
2023/01/02 02:31:08;;;;;;;9.60;8.05;;;;;;;;;;5072570;28;20062;-75
2023/01/02 02:33:44;;;;;;;9.57;8.32;;;;;;;;;;5071224;28;20048;-74
2023/01/02 02:36:25;;;;;;;11.23;8.57;;;;;;;;;;5075306;28;20575;-74
2023/01/02 02:38:55;;;;;;;11.98;9.55;;;;;;;;;;5064746;28;20560;-74
2023/01/02 02:41:34;;;;;;;15.70;10.95;;;;;;;;;;5090371;28;20036;-74
2023/01/02 02:44:19;;;;;;;17.02;11.60;;;;;;;;;;5091673;28;20040;-75
2023/01/02 02:46:52;;;;;;;18.88;12.50;;;;;;;;;;5089950;28;20118;-74
2023/01/02 02:49:28;;;;;;;18.25;11.98;;;;;;;;;;5089787;28;20131;-74
2023/01/02 02:52:13;;;;;;;17.42;13.45;;;;;;;;;;5073669;28;20117;-74
2023/01/02 02:54:46;;;;;;;18.35;14.35;;;;;;;;;;5086841;28;20438;-75
2023/01/02 02:57:12;;;;;;;25.80;14.57;;;;;;;;;;5091837;28;20036;-75
2023/01/02 02:59:41;;;;;;;23.60;16.30;;;;;;;;;;5094513;28;20122;-75
2023/01/02 03:02:07;;;;;;;23.38;17.15;;;;;;;;;;5072194;28;20043;-75
2023/01/02 03:04:33;;;;;;;22.85;15.88;;;;;;;;;;5056638;28;20051;-74
2023/01/02 03:07:18;;;;;;;22.48;16.00;;;;;;;;;;5066268;28;20421;-74
2023/01/02 03:09:49;;;;;;;17.95;14.15;;;;;;;;;;5070832;28;20032;-74
2023/01/02 03:12:25;;;;;;;20.60;15.50;;;10.20;99.90;;;;;;5076560;28;20040;-75
2023/01/02 03:15:02;;;;;;;21.50;14.90;;;;;;;;;;5072282;28;20406;-75
2023/01/02 03:17:47;;;;;;;19.05;14.45;;;;;;;;;;5071951;28;20039;-74
2023/01/02 03:20:16;;;;;;;20.58;15.23;;;;;;;;;;5065567;28;20575;-75
2023/01/02 03:22:46;;;;;;;21.55;14.60;;;;;;;;;;5073256;28;20520;-75
2023/01/02 03:25:13;;;;;;;21.88;13.45;;;;;;;;;;5076035;28;20044;-75
2023/01/02 03:27:43;;;;;;;23.77;14.98;;;;;;;;;;5076610;28;20056;-74
2023/01/02 03:30:13;;;;;;;18.35;12.63;;;;;;;;;;5077556;28;20051;-75
2023/01/02 03:32:47;;;;;;;20.00;13.02;;;;;;;;;;5102249;28;20055;-74
2023/01/02 03:35:16;;;;;;;21.05;11.82;;;;;;;;;;5071593;28;20048;-74
2023/01/02 03:37:45;;;;;;;14.77;11.50;;;;;;;;;;5105503;27;20406;-74
2023/01/02 03:40:15;;;;;;;22.80;12.27;;;;;;;;;;5074758;28;20448;-75
2023/01/02 03:42:45;;;;;;;14.75;11.25;;;;;;;;;;5088422;28;20371;-74
2023/01/02 03:45:24;;;;;;;16.88;11.20;;;;;;;;;;5099326;28;20051;-75
2023/01/02 03:48:02;;;;;;;18.77;11.60;;;;;;;;;;5072699;28;20455;-75
2023/01/02 03:50:33;;;;;;;15.32;12.18;;;;;;;;;;5081958;28;20040;-74
2023/01/02 03:52:59;;;;;;;22.80;14.85;;;;;;;;;;5106302;28;20127;-74
2023/01/02 03:55:26;;;;;;;21.55;13.20;;;;;;;;;;5069804;28;20037;-74
2023/01/02 03:58:05;;;;;;;17.10;11.13;;;;;;;;;;5084551;28;20036;-75
2023/01/02 04:00:36;;;;;;;23.65;14.15;;;;;;;;;;5075080;28;20038;-75
2023/01/02 04:03:22;;;;;;;19.20;13.05;;;;;;;;;;5063620;28;20130;-74
2023/01/02 04:05:54;;;;;;;16.67;12.57;;;;;;;;;;5064031;28;20513;-74
2023/01/02 04:08:35;;;;;;;20.83;13.10;;;;;;;;;;5070898;28;20405;-74
2023/01/02 04:11:02;;;;;;;19.60;13.80;;;;;;;;;;5087482;28;20173;-75
2023/01/02 04:13:32;;;;;;;18.42;12.43;;;;;;;;;;5071066;28;20040;-75
2023/01/02 04:15:59;;;;;;;20.45;13.43;;;;;;;;;;5081132;28;20036;-75
2023/01/02 04:18:28;;;;;;;17.45;12.65;;;;;;;;;;5070985;28;20146;-74
2023/01/02 04:20:56;;;;;;;17.98;12.55;;;;;;;;;;5076214;28;20085;-74
2023/01/02 04:23:29;;;;;;;18.33;12.85;;;;;;;;;;5094837;28;20088;-75
2023/01/02 04:26:03;;;;;;;21.25;13.93;;;;;;;;;;5090234;28;20568;-75
2023/01/02 04:28:31;;;;;;;20.75;15.13;;;;;;;;;;5065771;28;20516;-74
2023/01/02 04:31:07;;;;;;;16.98;12.15;;;;;;;;;;5076546;28;20043;-74
2023/01/02 04:33:37;;;;;;;20.77;14.20;;;;;;;;;;5080234;28;20036;-75
2023/01/02 04:36:10;;;;;;;17.58;12.95;;;;;;;;;;5099718;28;20435;-75
2023/01/02 04:38:36;;;;;;;22.95;14.73;;;;;;;;;;5091723;28;20093;-74
2023/01/02 04:41:03;;;;;;;20.05;13.13;;;;;;;;;;5071894;28;20047;-75
2023/01/02 04:43:30;;;;;;;16.58;12.40;;;;;;;;;;5075611;28;20031;-74
2023/01/02 04:45:56;;;;;;;19.77;13.55;;;;;;;;;;5105671;28;20080;-75
2023/01/02 04:48:22;;;;;;;21.52;12.98;;;;;;;;;;5078494;28;20535;-73
2023/01/02 04:50:48;;;;;;;16.98;13.88;;;;;;;;;;5092867;28;20040;-75
2023/01/02 04:53:14;;;;;;;21.75;12.52;;;;;;;;;;5092986;28;20058;-75
2023/01/02 04:55:40;;;;;;;17.15;11.95;;;;;;;;;;5070730;28;20041;-75
2023/01/02 04:58:07;;;;;;;16.95;12.48;;;;;;;;;;5075727;28;20440;-75
2023/01/02 05:00:33;;;;;;;15.15;11.93;;;;;;;;;;5072494;28;20097;-74
2023/01/02 05:03:03;;;;;;;14.43;11.48;;;;;;;;;;5084542;28;20093;-75
2023/01/02 05:05:29;;;;;;;16.38;11.52;;;;;;;;;;5089361;28;20119;-76
2023/01/02 05:07:57;;;;;;;13.52;10.32;;;;;;;;;;5076315;28;20048;-75
2023/01/02 05:10:23;;;;;;;15.18;10.82;;;;;;;;;;5074824;28;20490;-75
2023/01/02 05:12:50;;;;;;;12.80;9.80;;;;;;;;;;5056084;28;20048;-75
2023/01/02 05:15:16;;;;;;;13.95;10.52;;;;;;;;;;5075891;28;20493;-75
2023/01/02 05:17:42;;;;;;;14.30;10.73;;;;;;;;;;5071698;28;20493;-75
2023/01/02 05:20:10;;;;;;;15.30;11.52;;;;;;;;;;5090785;28;20286;-75
2023/01/02 05:25:25;;;;;;;18.05;11.80;;;;;;;;;;5109643;27;20431;-75
2023/01/02 05:27:52;;;;;;;14.52;10.50;;;;;;;;;;5089840;28;20455;-75
2023/01/02 05:30:18;;;;;;;11.73;9.98;;;;;;;;;;5070607;28;20040;-74
2023/01/02 05:32:44;;;;;;;13.23;10.43;;;;;;;;;;5082839;28;20513;-75
2023/01/02 05:35:11;;;;;;;13.52;9.52;;;;;;;;;;5092173;28;20040;-75
2023/01/02 05:37:37;;;;;;;14.00;10.52;;;;;;;;;;5091312;28;20077;-75
2023/01/02 05:40:03;;;;;;;12.88;10.20;;;;;;;;;;5059015;28;20044;-75
2023/01/02 05:42:29;;;;;;;15.30;10.35;;;;;;;;;;5077366;28;20064;-76
2023/01/02 05:44:55;;;;;;;14.88;9.73;;;;;;;;;;5074044;28;20072;-75
2023/01/02 05:47:22;;;;;;;11.85;8.55;;;;;;;;;;5086624;28;20079;-74
2023/01/02 05:49:48;;;;;;;11.15;8.77;;;;;;;;;;5094942;28;20036;-74
2023/01/02 05:52:14;;;;;;;9.90;8.00;;;;;;;;;;5072728;28;20040;-75
2023/01/02 05:54:40;;;;;;;12.07;9.25;;;;;;;;;;5071457;28;20185;-75
2023/01/02 05:57:06;;;;;;;11.75;9.38;;;;;;;;;;5058528;28;20553;-75
2023/01/02 05:59:32;;;;;;;9.95;8.20;;;;;;;;;;5074622;28;20028;-75
2023/01/02 06:01:59;;;;;;;10.77;8.07;;;;;;;;;;5084077;28;20031;-75
2023/01/02 06:04:25;;;;;;;11.77;8.55;;;;;;;;;;5074891;28;20028;-76
2023/01/02 06:06:51;;;;;;;11.68;8.80;;;;;;;;;;5089211;28;20122;-76
2023/01/02 06:09:17;;;;;;;11.20;8.65;;;;;;;;;;5087475;28;20046;-74
2023/01/02 06:11:43;;;;;;;12.13;8.98;;;;;;;;;;5077926;28;20059;-75
2023/01/02 06:14:10;;;;;;;15.68;10.77;;;;;;;;;;5094248;28;20039;-75
2023/01/02 06:16:37;;;;;;;15.52;9.77;;;;;;;;;;5094972;28;20584;-74
2023/01/02 06:19:03;;;;;;;12.63;8.52;;;;;;;;;;5074653;28;20174;-74
2023/01/02 06:21:29;;;;;;;14.43;7.68;;;;;;;;;;5074161;28;20639;-75
2023/01/02 06:23:56;;;;;;;6.13;3.90;;;;;;;;;;5088219;28;20039;-74
2023/01/02 06:26:23;;;;;;;10.00;3.63;;;;;;;;;;5091038;28;20050;-74
2023/01/02 06:28:50;;;;;;;6.18;3.70;;;;;;;;;;5093645;28;20035;-74
2023/01/02 06:31:17;;;;;;;9.10;2.60;;;;;;;;;;5070366;28;20443;-74
2023/01/02 06:33:43;;;;;;;6.07;2.80;;;;;;;;;;5066692;28;20075;-74
2023/01/02 06:36:11;;;;;;;8.23;2.90;;;;;;;;;;5070734;28;20048;-74
2023/01/02 06:38:37;;;;;;;5.05;2.50;;;;;;;;;;5056709;28;20143;-74
2023/01/02 06:41:05;;;;;;;5.25;1.92;;;;;;;;;;5063454;28;20436;-75
2023/01/02 06:43:31;;;;;;;2.70;1.40;;;;;;;;;;5056889;28;20102;-73
2023/01/02 06:45:58;;;;;;;3.30;1.27;;;;;;;;;;5064673;28;20519;-74
2023/01/02 06:48:24;;;;;;;3.50;1.10;;;;;;;;;;5086391;28;20036;-74
2023/01/02 06:50:50;;;;;;;2.60;0.90;;;;;;;;;;5069649;28;20489;-75
2023/01/02 06:53:16;;;;;;;1.85;1.10;;;;;;;;;;5065506;28;20082;-74
2023/01/02 06:56:01;;;;;;;2.08;1.02;;;;;;;;;;5060326;28;20048;-74
2023/01/02 06:58:29;;;;;;;3.65;0.95;;;;;;;;;;5069010;28;20036;-74
2023/01/02 07:00:55;;;;;;;2.08;0.90;;;;;;;;;;5067112;28;20044;-74
2023/01/02 07:03:21;;;;;;;1.65;0.80;;;;;;;;;;5078095;28;20536;-74
2023/01/02 07:05:47;;;;;;;1.70;0.80;;;;;;;;;;5072726;28;20044;-74
2023/01/02 07:08:13;;;;;;;1.70;0.80;;;;;;;;;;5077998;28;20044;-74
2023/01/02 07:10:40;;;;;;;5.25;0.98;;;;;;;;;;5096280;27;20416;-74
2023/01/02 07:13:06;;;;;;;2.92;1.10;;;;;;;;;;5069841;28;20059;-74
2023/01/02 07:15:32;;;;;;;4.10;1.13;;;;;;;;;;5070281;28;20624;-75
2023/01/02 07:17:58;;;;;;;3.45;1.15;;;;;;;;;;5069175;28;20071;-73
2023/01/02 07:20:24;;;;;;;2.08;1.00;;;;;;;;;;5096811;28;20448;-74
2023/01/02 07:22:52;;;;;;;1.65;1.05;;;;;;;;;;5072908;28;20035;-74
2023/01/02 07:25:18;;;;;;;2.05;1.08;;;;;;;;;;5075954;28;20076;-74
2023/01/02 07:27:44;;;;;;;5.20;0.80;;;;;;;;;;5079225;28;20054;-74
2023/01/02 07:30:11;;;;;;;1.77;0.93;;;;;;;;;;5078628;28;20044;-74
2023/01/02 07:32:37;;;;;;;4.07;1.35;;;;;;;;;;5081017;28;20048;-74
2023/01/02 07:35:03;;;;;;;3.58;0.95;;;;;;;;;;5081765;28;20044;-74
2023/01/02 07:37:29;;;;;;;1.88;1.20;;;;;;;;;;5065927;28;20046;-74
2023/01/02 07:39:56;;;;;;;2.50;1.05;;;;;;;;;;5058459;28;20032;-74
2023/01/02 07:42:22;;;;;;;2.65;1.45;;;;;;;;;;5062067;28;20064;-73
2023/01/02 07:44:48;;;;;;;3.15;1.23;;;;;;;;;;5080958;28;20036;-74
2023/01/02 07:47:14;;;;;;;2.95;1.50;;;;;;;;;;5059485;28;20044;-74
2023/01/02 07:49:40;;;;;;;2.63;1.30;;;;;;;;;;5077003;28;20029;-75
2023/01/02 07:52:10;;;;;;;5.55;1.38;;;;;;;;;;5078722;28;20283;-74
2023/01/02 07:54:36;;;;;;;2.63;1.15;;;;;;;;;;5064668;28;20092;-74
2023/01/02 07:57:03;;;;;;;2.92;1.75;;;;;;;;;;5060432;28;20051;-74
2023/01/02 07:59:29;;;;;;;2.35;1.25;;;;;;;;;;5078463;28;20119;-74
2023/01/02 08:01:55;;;;;;;5.32;1.27;;;;;;;;;;5064991;28;20162;-74
2023/01/02 08:04:21;;;;;;;6.00;1.83;;;;;;;;;;5067070;28;20047;-74
2023/01/02 08:06:47;;;;;;;2.83;1.20;;;;;;;;;;5079609;28;20040;-74
2023/01/02 08:09:14;;;;;;;2.40;1.30;;;;;;;;;;5061795;28;20385;-74
2023/01/02 08:11:40;;;;;;;3.35;1.02;;;;;;;;;;5088733;28;20138;-74
2023/01/02 08:14:06;;;;;;;6.75;1.60;;;;;;;;;;5069160;28;20032;-74
2023/01/02 08:16:32;;;;;;;3.08;1.25;;;;;;;;;;5070927;28;20129;-74
2023/01/02 08:18:58;;;;;;;4.20;1.30;;;;;;;;;;5058787;28;20440;-74
2023/01/02 08:21:25;;;;;;;3.15;1.35;;;;;;;;;;5078958;28;20125;-74
2023/01/02 08:23:51;;;;;;;3.72;1.60;;;;;;;;;;5077615;28;20088;-74
2023/01/02 08:26:19;;;;;;;2.90;1.20;;;;;;;;;;5071501;28;20776;-74
2023/01/02 08:28:45;;;;;;;2.75;1.40;;;;;;;;;;5039069;28;20055;-74
2023/01/02 08:31:13;;;;;;;4.63;1.73;;;;;;;;;;5081393;28;20036;-73
2023/01/02 08:33:40;;;;;;;5.47;2.53;;;;;;;;;;5105706;28;20032;-74
2023/01/02 08:36:06;;;;;;;4.50;2.13;;;;;;;;;;5067941;28;20524;-74
2023/01/02 08:38:32;;;;;;;4.90;2.22;;;;;;;;;;5087385;28;20440;-74
2023/01/02 08:40:59;;;;;;;5.03;2.20;;;;;;;;;;5094698;28;20040;-74
2023/01/02 08:43:25;;;;;;;4.18;2.42;;;;;;;;;;5085699;28;20063;-73
2023/01/02 08:45:52;;;;;;;7.32;2.85;;;;;;;;;;5066234;28;20297;-74
2023/01/02 08:48:18;;;;;;;6.40;2.97;;;;;;;;;;5074834;28;20039;-74
2023/01/02 08:50:44;;;;;;;5.13;2.13;;;;;;;;;;5089699;28;20032;-73
2023/01/02 08:53:10;;;;;;;5.45;2.22;;;;;;;;;;5092719;28;20096;-74
2023/01/02 08:55:36;;;;;;;7.63;3.40;;;;;;;;;;5083732;28;20033;-74
2023/01/02 08:58:02;;;;;;;5.75;2.47;;;;;;;;;;5052538;28;20036;-74
2023/01/02 09:00:28;;;;;;;6.38;2.58;;;;;;;;;;5062723;28;20038;-74
2023/01/02 09:02:55;;;;;;;4.35;2.40;;;;;;;;;;5071258;28;20452;-73
2023/01/02 09:05:21;;;;;;;5.40;2.78;;;;;;;;;;5069089;28;20160;-73
2023/01/02 09:07:47;;;;;;;5.63;2.88;;;;;;;;;;5069262;28;20128;-74
2023/01/02 09:10:13;;;;;;;7.28;3.15;;;;;;;;;;5090990;28;20044;-73
2023/01/02 09:12:39;;;;;;;6.47;2.97;;;;;;;;;;5089276;28;20075;-70
2023/01/02 09:15:05;;;;;;;11.15;3.58;;;;;;;;;;5084541;28;20040;-70
2023/01/02 09:17:32;;;;;;;5.43;3.28;;;;;;;;;;5075049;28;20450;-71
2023/01/02 09:19:58;;;;;;;5.32;2.67;;;;;;;;;;5091063;28;20451;-71
2023/01/02 09:22:24;;;;;;;7.22;2.70;;;;;;;;;;5085682;28;20434;-71
2023/01/02 09:24:50;;;;;;;9.50;2.42;;;;;;;;;;5072393;28;20044;-72
2023/01/02 09:27:16;;;;;;;4.53;2.38;;;;;;;;;;5079994;28;20051;-72
2023/01/02 09:29:42;;;;;;;4.00;2.13;;;;;;;;;;5073245;28;20035;-71
2023/01/02 09:32:09;;;;;;;3.97;2.13;;;;;;;;;;5088797;28;20089;-72
2023/01/02 09:34:35;;;;;;;6.00;2.08;;;;;;;;;;5073232;28;20067;-72
2023/01/02 09:37:01;;;;;;;3.38;1.80;;;;;;;;;;5075524;28;20466;-72
2023/01/02 09:39:27;;;;;;;4.40;1.50;;;;;;;;;;5056761;28;20032;-71
2023/01/02 09:41:56;;;;;;;3.78;1.38;;;;;;;;;;5074642;28;20547;-71
2023/01/02 09:44:28;;;;;;;2.60;1.15;;;;;;;;;;5073006;28;20036;-71
2023/01/02 09:47:15;;;;;;;2.10;0.98;;;;;;;;;;5067748;28;20417;-71
2023/01/02 09:49:49;;;;;;;2.70;1.48;;;;;;;;;;5069632;28;20037;-72
2023/01/02 09:52:18;;;;;;;3.25;1.92;;;;;;;;;;5069886;28;20044;-72
2023/01/02 09:54:45;;;;;;;5.43;2.38;;;;;;;;;;5082850;28;20040;-72
2023/01/02 09:57:23;;;;;;;3.08;1.95;;;;;;;;;;5062569;28;20048;-71
2023/01/02 09:59:58;;;;;;;3.88;1.85;;;;;;;;;;5063707;28;20032;-71
2023/01/02 10:02:46;;;;;;;3.53;1.90;;;;;;;;;;5094926;27;20032;-71
2023/01/02 10:05:30;;;;;;;4.43;1.55;;;;;;;;;;5067250;28;20036;-71
2023/01/02 10:07:56;;;;;;;2.83;1.83;;;;;;;;;;5062703;28;20047;-72
2023/01/02 10:10:27;;;;;;;5.15;1.83;;;;;;;;;;5068340;28;20512;-71
2023/01/02 10:13:11;;;;;;;3.30;2.17;;;;;;;;;;5055686;28;20044;-72
2023/01/02 10:15:42;;;;;;;3.00;1.98;;;;;;;;;;5076290;28;20051;-72
2023/01/02 10:18:17;;;;;;;10.25;4.45;;;;;;;;;;5066595;28;20052;-72
2023/01/02 10:20:45;;;;;;;3.05;2.13;;;;;;;;;;5069497;28;20409;-72
2023/01/02 10:23:14;;;;;;;7.07;2.92;;;;;;;;;;5053919;28;20071;-72
2023/01/02 10:25:43;;;;;;;5.03;2.45;;;;;;;;;;5071128;28;20057;-71
2023/01/02 10:28:35;;;;;;;5.40;1.90;;;;;;;;;;5070974;28;20048;-71
2023/01/02 10:31:08;;;;;;;5.30;3.35;;;;;;;;;;5049863;28;20088;-71
2023/01/02 10:33:34;;;;;;;;;;;;;;;;;;5045789;28;20032;-71
2023/01/02 10:36:01;;;;;;;6.35;2.60;;;;;;;;;;5051196;28;19920;-71
2023/01/02 10:38:33;;;;;;;5.60;2.95;;;;;;;;;;5057516;28;20133;-71
2023/01/02 10:40:59;;;;;;;4.63;2.95;;;;;;;;;;5074660;28;20083;-71
2023/01/02 10:43:25;;;;;;;5.70;2.50;;;;;;;;;;5064382;28;20140;-71
2023/01/02 10:45:52;;;;;;;4.68;2.30;;;;;;;;;;5086687;28;20128;-71
2023/01/02 10:48:19;;;;;;;7.30;3.88;;;;;;;;;;5079894;28;20536;-71
2023/01/02 10:50:50;;;;;;;6.55;2.22;;;;;;;;;;5060720;28;20041;-71
2023/01/02 10:53:21;;;;;;;7.70;4.70;;;;;;;;;;5061096;28;20124;-71
2023/01/02 10:55:48;;;;;;;8.70;4.80;;;;;;;;;;5052907;28;20047;-71
2023/01/02 10:58:17;;;;;;;4.97;2.53;;;;;;;;;;5087974;28;20047;-71
2023/01/02 11:00:43;;;;;;;4.82;3.33;;;;;;;;;;5063392;28;20033;-71
2023/01/02 11:03:17;;;;;;;6.07;2.95;;;;;;;;;;5089806;28;20036;-71
2023/01/02 11:05:48;;;;;;;5.93;2.85;;;;;;;;;;5091364;28;20186;-71
2023/01/02 11:08:15;;;;;;;5.00;2.15;;;;;;;;;;5078630;28;20406;-71
2023/01/02 11:10:42;;;;;;;4.80;2.42;;;;;;;;;;5064144;28;20055;-71
2023/01/02 11:13:19;;;;;;;8.13;3.67;;;;;;;;;;5062609;28;20032;-70
2023/01/02 11:16:00;;;;;;;8.85;2.67;;;;;;;;;;5060672;28;20056;-71
2023/01/02 11:18:28;;;;;;;7.32;2.90;;;;;;;;;;5059729;28;20047;-71
2023/01/02 11:20:55;;;;;;;9.30;2.78;;;;;;;;;;5071193;28;20055;-71
2023/01/02 11:23:23;;;;;;;9.25;2.42;;;;;;;;;;5057133;28;20115;-71
2023/01/02 11:25:50;;;;;;;6.07;2.70;;;;;;;;;;5058341;28;20101;-71
2023/01/02 11:28:42;;;;;;;8.13;4.03;;;;;;;;;;5059590;28;20036;-71
2023/01/02 11:31:10;;;;;;;7.60;3.10;;;;;;;;;;5063571;28;20047;-71
2023/01/02 11:33:37;;;;;;;7.15;3.20;;;;;;;;;;5079535;28;20043;-71
2023/01/02 11:36:03;;;;;;;5.03;2.55;;;;;;;;;;5082356;28;20127;-71
2023/01/02 11:38:44;;;;;;;4.82;3.00;;;;;;;;;;5090335;28;20027;-71
2023/01/02 11:44:28;;;;;;;6.47;2.88;;;;;;;;;;5094917;28;20037;-71
2023/01/02 11:46:55;;;;;;;7.63;4.60;;;;;;;;;;5082184;28;20093;-72
2023/01/02 11:49:41;;;;;;;12.30;4.10;;;;;;;;;;5083834;28;20191;-71
2023/01/02 11:52:15;;;;;;;6.90;4.43;;;;;;;;;;5055379;28;20056;-71
2023/01/02 11:54:49;;;;;;;7.47;2.53;;;;;;;;;;5056865;28;20386;-71
2023/01/02 11:57:35;;;;;;;5.05;1.88;;;;;;;;;;5062665;28;20047;-71
2023/01/02 12:00:02;;;;;;;6.72;2.53;;;;;;;;;;5054513;28;20036;-71
2023/01/02 12:02:48;;;;;;;6.20;2.80;;;;;;;;;;5076553;28;20146;-71
2023/01/02 12:05:34;;;;;;;13.45;3.17;;;;;;;;;;5071125;28;20532;-71
2023/01/02 12:08:04;;;;;;;9.73;2.55;;;;;;;;;;5108146;28;20035;-71
2023/01/02 12:10:40;;;;;;;7.00;2.50;;;;;;;;;;5105125;28;20039;-71
2023/01/02 12:13:30;;;;;;;6.43;2.70;;;;;;;;;;5072394;28;20048;-71
2023/01/02 12:15:56;;;;;;;9.82;3.30;;;;;;;;;;5081916;28;20418;-71
2023/01/02 12:18:22;;;;;;;13.35;3.58;;;;;;;;;;5061490;28;20043;-70
2023/01/02 12:21:04;;;;;;;10.45;4.85;;;;;;;;;;5060712;28;20101;-71
2023/01/02 12:23:34;;;;;;;8.77;4.45;;;;;;;;;;5042854;28;20352;-71
2023/01/02 12:26:06;;;;;;;13.80;2.50;;;;;;;;;;5069002;28;20581;-71
2023/01/02 12:28:32;;;;;;;10.10;2.95;;;;;;;;;;5057368;28;20561;-71
2023/01/02 12:31:17;;;;;;;8.77;2.40;;;;;;;;;;5055156;28;20083;-70
2023/01/02 12:33:55;;;;;;;11.73;2.38;;;;;;;;;;5085475;28;20047;-70
2023/01/02 12:36:26;;;;;;;7.05;2.28;;;;;;;;;;5052571;28;20610;-71
2023/01/02 12:38:52;;;;;;;10.35;3.97;;;;;;;;;;5069154;28;20047;-70
2023/01/02 12:41:26;;;;;;;10.65;2.83;;;;;;;;;;5055377;28;20028;-70
2023/01/02 12:44:10;;;;;;;9.52;4.07;;;;;;;;;;5070631;28;20895;-70
2023/01/02 12:46:47;;;;;;;7.03;3.08;;;;;;;;;;5046646;28;20050;-70
2023/01/02 12:49:16;;;;;;;14.02;4.22;;;;;;;;;;5095090;27;20050;-70
2023/01/02 12:51:51;;;;;;;6.80;3.05;;;;;;;;;;5070996;28;20074;-70
2023/01/02 12:54:24;;;;;;;8.50;3.10;;;;;;;;;;5079212;28;20035;-70
2023/01/02 12:56:54;;;;;;;17.05;5.75;;;;;;;;;;5091095;28;20511;-70
2023/01/02 12:59:35;;;;;;;8.55;2.83;;;;;;;;;;5073803;28;20093;-70
2023/01/02 13:02:20;;;;;;;12.40;4.13;;;;;;;;;;5052417;28;20115;-70
2023/01/02 13:04:50;;;;;;;8.98;3.20;;;;;;;;;;5083074;28;20071;-70
2023/01/02 13:07:16;;;;;;;11.00;3.55;;;;;;;;;;5077000;28;20047;-70
2023/01/02 13:09:44;;;;;;;39.25;18.80;;;;;;;;;;5075045;28;20036;-70
2023/01/02 13:12:18;;;;;;;46.10;28.58;;;;;;;;;;5072064;28;20567;-70
2023/01/02 13:14:44;;;;;;;28.60;15.05;;;;;;;;;;5072892;28;20143;-70
2023/01/02 13:17:13;;;;;;;13.02;5.25;;;;;;;;;;5079040;28;20398;-70
2023/01/02 13:19:43;;;;;;;15.10;8.10;;;;;;;;;;5073462;28;20106;-70
2023/01/02 13:22:21;;;;;;;11.60;5.28;;;;;;;;;;5063957;28;20036;-70
2023/01/02 13:24:48;;;;;;;18.92;4.60;;;;;;;;;;5068982;28;20081;-69
2023/01/02 13:27:15;;;;;;;14.98;6.28;;;;;;;;;;5078728;28;20489;-70
2023/01/02 13:29:42;;;;;;;13.50;5.63;;;;;;;;;;5077436;28;20046;-70
2023/01/02 13:32:09;;;;;;;22.65;9.77;;;;;;;;;;5075122;28;20426;-70
2023/01/02 13:34:39;;;;;;;17.80;6.28;;;;;;;;;;5064638;28;20032;-70
2023/01/02 13:37:12;;;;;;;20.05;7.60;;;;;;;;;;5088893;28;20040;-70
2023/01/02 13:39:41;;;;;;;18.05;7.40;;;;;;;;;;5090031;28;20052;-70
2023/01/02 13:45:09;;;;;;;13.70;4.25;;;;;;;;;;5098001;27;20551;-70
2023/01/02 13:47:37;;;;;;;16.42;5.78;;;;;;;;;;5069978;28;20032;-70
2023/01/02 13:50:09;;;;;;;11.55;4.20;;;;;;;;;;5092697;27;20040;-70
2023/01/02 13:52:35;;;;;;;25.35;6.22;;;;;;;;;;5067071;28;20048;-70
2023/01/02 13:55:19;;;;;;;11.65;4.82;;;;;;;;;;5071094;28;20040;-70
2023/01/02 13:57:46;;;;;;;14.55;4.43;;;;;;;;;;5076298;28;20050;-70
2023/01/02 14:00:15;;;;;;;13.48;5.28;;;;;;;;;;5089653;28;20436;-70
2023/01/02 14:03:01;;;;;;;10.35;4.53;;;;;;;;;;5073244;28;20044;-70
2023/01/02 14:05:46;;;;;;;9.38;4.75;;;;;;;;;;5069580;28;20041;-71
2023/01/02 14:08:26;;;;;;;11.38;4.70;;;;;;;;;;5056685;28;20545;-70
2023/01/02 14:10:53;;;;;;;11.90;5.78;;;;;;;;;;5091380;28;20489;-70
2023/01/02 14:13:22;;;;;;;26.02;8.30;;;;;;;;;;5053387;28;20456;-70
2023/01/02 14:15:57;;;;;;;17.15;6.43;;;;;;;;;;5090454;28;20040;-70
2023/01/02 14:18:28;;;;;;;13.35;5.28;;;;;;;;;;5103771;27;20028;-70
2023/01/02 14:20:54;;;;;;;16.83;5.70;;;;;;;;;;5118237;27;20050;-70
2023/01/02 14:23:40;;;;;;;12.10;4.70;;;;;;;;;;5072195;28;20047;-70
2023/01/02 14:26:06;;;;;;;18.77;7.18;;;;;;;;;;5091601;28;20045;-70
2023/01/02 14:28:36;;;;;;;17.13;6.20;;;;;;;;;;5067527;28;20044;-70
2023/01/02 14:31:14;;;;;;;15.07;5.43;;;;;;;;;;5068461;28;20486;-70
2023/01/02 14:33:40;;;;;;;14.65;5.40;;;;;;;;;;5101085;27;20055;-70
2023/01/02 14:36:11;;;;;;;13.02;5.25;;;;;;;;;;5057831;28;20040;-70
2023/01/02 14:38:40;;;;;;;12.52;5.15;;;;;;;;;;5073720;28;20033;-70
2023/01/02 14:44:22;;;;;;;17.63;6.65;;;;;;;;;;5028573;28;20387;-70
2023/01/02 14:46:49;;;;;;;9.55;4.80;;;;;;;;;;5084691;28;20097;-70
2023/01/02 14:49:19;;;;;;;13.75;5.80;;;;;;;;;;5070381;28;20040;-70
2023/01/02 14:51:54;;;;;;;17.58;5.35;;;;;;;;;;5065398;28;20044;-70
2023/01/02 14:54:26;;;;;;;11.70;5.72;;;;;;;;;;5071206;28;20040;-70
2023/01/02 14:56:54;;;;;;;15.85;6.85;;;;;;;;;;5102732;27;20073;-70
2023/01/02 14:59:46;;;;;;;10.98;5.38;;;;;;;;;;5068984;28;20039;-70